aviador You're here:

LFML Decoded Metar

MARSEILLE in FRANCE
Report Time2017-10-22 17:00:00
UTC Time2017-10-22 17:16:49
Flight Rules vfr VFR
Wind310° at 16 kt
W.Decomp.*RWY 31: 16.0 kt HW 0.3 kt LCW
W.Rank310° ranks 2
Current wind is above 310° avg. (15.1)
Visibility9999 m
Phenomena:N/A
Clouds:Few 014 Hf
Expected CloudBase > 5,200 ft AGL from Temp-Dew spread
CeilingNone
Temp17°C (ISA +2)
Dew Point04°C (42% RH)
AAT9.9°C
QNH1020 hPa
Density Alt259 ft
Elevation118 ft
Report Wrong Elevation
Raw Report
LFML 221700Z AUTO 31016KT 9999 FEW014 17/04 Q1020 TEMPO
33022G35KT=

Extra information for LFML:More info

Metar Taf Metar & Taf Last 4 Metars F.Rules Stats Wind Profile Meteogram Temp Stats Airport Information Weather charts Add Link Nearby VenuesMetar ALERT Operation Metar Decoded Social comments